Terminal Aerodrome Forecast
Issued by NWS

Home | Current Version | Previous Version | Text Only | Print | Product List | Glossary On
Versions: 1 2 3 4 5 6 7 8 9 10 11 12 13 14 15 16 17 18 19 20 21 22 23 24 25 26 27 28 29 30 31 32
000
FTUS45 KGGW 011700
TAFOLF
TAF
KOLF 011733Z 0118/0218 VRB04KT P6SM FEW015 SCT300
     FM012100 17006KT P6SM FEW200 SCT250
     FM020700 00000KT P6SM SCT110 BKN150
     FM021300 02009KT P6SM VCSH FEW010 OVC060
     FM021600 01012KT 3SM -SN BR SCT005 OVC015=

USA.gov is the U.S. government's official web portal to all federal, state and local government web resources and services.